Time;durP1;ratioP1;P1;durP2;ratioP2;P2;SDS_P1;SDS_P2;PMS_P1;PMS_P2;Temp;Humidity;BMP_temperature;BMP_pressure;BME280_temperature;BME280_humidity;BME280_pressure;Samples;Min_cycle;Max_cycle;Signal;HPM_P1;HPM_P2
2022/01/24 00:02:23;;;;;;;32.58;19.13;;;;;;;-3.49;78.12;101507.03;5042566;28;20096;-55
2022/01/24 00:04:49;;;;;;;31.77;17.85;;;;;;;-3.30;78.85;101506.56;5052398;28;20036;-56
2022/01/24 00:07:19;;;;;;;33.55;19.58;;;;;;;-3.24;79.42;101510.28;5056228;28;20079;-55
2022/01/24 00:09:45;;;;;;;29.13;18.42;;;;;;;-3.17;78.04;101507.34;5056041;28;20021;-55
2022/01/24 00:12:19;;;;;;;31.95;19.85;;;;;;;-3.24;77.60;101502.66;5046226;28;20274;-55
2022/01/24 00:17:39;;;;;;;33.65;19.48;;;;;;;-3.14;78.16;101490.66;5057971;28;20306;-56
2022/01/24 00:28:05;;;;;;;32.47;19.52;;;;;;;-3.11;77.90;101502.66;5058302;28;20088;-56
2022/01/24 00:30:31;;;;;;;29.98;18.70;;;;;;;-3.08;77.24;101497.78;5042491;28;20037;-55
2022/01/24 00:32:56;;;;;;;30.95;17.90;;;;;;;-3.18;77.29;101498.88;5054725;28;20029;-55
2022/01/24 00:35:22;;;;;;;30.58;17.13;;;;;;;-3.25;77.30;101503.44;5042634;28;20041;-55
2022/01/24 00:37:48;;;;;;;27.73;16.70;;;;;;;-3.33;77.35;101496.22;5042298;28;20323;-55
2022/01/24 00:40:15;;;;;;;32.05;18.38;;;;;;;-3.18;77.58;101509.00;5043755;28;20196;-55
2022/01/24 00:42:56;;;;;;;30.45;17.77;;;;;;;-3.20;77.49;101505.50;5051453;28;20036;-55
2022/01/24 00:45:41;;;;;;;29.40;17.45;;;;;;;-3.19;77.86;101517.38;5052451;28;20055;-56
2022/01/24 00:48:28;;;;;;;26.80;17.20;;;;;;;-3.26;77.59;101514.34;5048762;28;20330;-55
2022/01/24 00:56:23;;;;;;;28.10;16.70;;;;;;;-3.46;77.49;101511.44;5036028;28;20100;-55
2022/01/24 00:58:48;;;;;;;26.08;17.38;;;;;;;-3.45;78.09;101515.69;5048578;28;20017;-57
2022/01/24 01:01:14;;;;;;;25.52;16.67;;;;;;;-3.37;77.99;101509.47;5049436;28;20036;-55
2022/01/24 01:03:40;;;;;;;28.20;16.05;;;;;;;-3.52;77.61;101500.88;5051977;28;20052;-55
2022/01/24 01:06:07;;;;;;;25.05;15.65;;;;;;;-3.53;77.89;101511.81;5052187;28;20341;-55
2022/01/24 01:19:33;;;;;;;25.65;16.17;;;;;;;-3.48;77.82;101500.31;5057314;28;20045;-55
2022/01/24 01:21:59;;;;;;;25.75;15.60;;;;;;;-3.49;76.86;101508.69;5043938;28;20049;-55
2022/01/24 01:24:27;;;;;;;27.08;16.58;;;;;;;-3.68;77.14;101499.91;5051184;28;20017;-55
2022/01/24 01:27:19;;;;;;;26.55;16.08;;;;;;;-3.65;76.75;101501.72;5042771;28;20033;-55
2022/01/24 01:29:56;;;;;;;28.25;16.63;;;;;;;-3.73;77.55;101495.31;5037707;28;20113;-55
2022/01/24 01:35:18;;;;;;;24.52;15.65;;;;;;;-3.83;77.13;101497.22;5037617;28;20245;-55
2022/01/24 01:56:27;;;;;;;27.15;16.15;;;;;;;-3.70;77.61;101519.16;5045159;28;20041;-56
2022/01/24 01:58:53;;;;;;;24.88;16.10;;;;;;;-3.55;77.55;101533.59;5046006;28;20345;-54
2022/01/24 02:01:18;;;;;;;24.17;15.50;;;;;;;-3.82;77.42;101480.38;5058105;28;20036;-57
2022/01/24 02:03:44;;;;;;;26.17;16.38;;;;;;;-3.50;77.80;101522.13;5045822;28;20256;-55
2022/01/24 02:06:11;;;;;;;25.02;15.57;;;;;;;-3.52;76.43;101534.69;5053682;28;20289;-55
2022/01/24 02:08:38;;;;;;;29.17;16.63;;;;;;;-3.86;76.63;101470.84;5060620;28;20051;-55
2022/01/24 02:11:03;;;;;;;24.70;15.88;;;;;;;-3.50;76.16;101528.06;5053424;28;20306;-55
2022/01/24 02:13:30;;;;;;;26.13;15.98;;;;;;;-3.51;76.74;101530.50;5046374;28;20071;-56
2022/01/24 02:18:38;;;;;;;27.08;16.77;;;;;;;-3.47;77.27;101528.25;5048273;28;20032;-56
2022/01/24 02:21:26;;;;;;;29.75;16.80;;;;;;;-3.31;77.73;101540.28;5046128;28;20078;-56
2022/01/24 02:23:57;;;;;;;29.33;17.83;;;;;;;-3.32;76.68;101538.53;5042323;28;20105;-55
2022/01/24 02:26:22;;;;;;;25.65;16.10;;;;;;;-3.50;76.54;101524.66;5043669;28;20314;-55
2022/01/24 02:31:38;;;;;;;27.25;15.85;;;;;;;-3.74;76.16;101532.38;5059416;28;20033;-55
2022/01/24 02:34:18;;;;;;;27.48;15.65;;;;;;;-4.14;76.96;101458.03;5045864;28;20045;-57
2022/01/24 02:36:44;;;;;;;26.55;15.30;;;;;;;-3.75;76.92;101528.09;5045736;28;20101;-55
2022/01/24 02:49:47;;;;;;;25.13;14.85;;;;;;;-3.61;76.92;101530.69;5043595;28;20029;-56
2022/01/24 02:52:14;;;;;;;24.63;15.27;;;;;;;-3.87;76.90;101537.41;5046924;28;20033;-55
2022/01/24 02:54:40;;;;;;;25.80;16.08;;;;;;;-3.79;77.65;101537.91;5044728;28;20044;-56
2022/01/24 02:57:08;;;;;;;24.95;15.23;;;;;;;-3.81;76.64;101542.88;5047224;28;20056;-59
2022/01/24 02:59:35;;;;;;;27.38;16.67;;;;;;;-3.81;77.62;101542.88;5046881;28;20035;-56
2022/01/24 03:02:01;;;;;;;28.63;16.08;;;;;;;-3.94;77.07;101537.78;5043827;28;20037;-56
2022/01/24 03:04:27;;;;;;;28.90;17.65;;;;;;;-3.97;78.20;101532.53;5052401;28;20037;-56
2022/01/24 03:06:53;;;;;;;27.02;17.27;;;;;;;-3.86;78.02;101540.06;5044024;28;20036;-55
2022/01/24 03:09:22;;;;;;;28.85;17.10;;;;;;;-3.75;77.43;101550.00;5044581;28;20059;-56
2022/01/24 03:14:18;;;;;;;27.77;16.80;;;;;;;-3.81;77.02;101538.69;5043870;28;20043;-56
2022/01/24 03:16:43;;;;;;;27.88;16.38;;;;;;;-4.05;76.60;101527.78;5044904;28;20057;-56
2022/01/24 03:19:09;;;;;;;26.08;15.50;;;;;;;-4.19;77.34;101525.97;5052952;28;20174;-56
2022/01/24 03:21:35;;;;;;;25.33;15.05;;;;;;;-4.20;77.04;101524.25;5059494;28;20033;-56
2022/01/24 03:24:00;;;;;;;26.35;15.38;;;;;;;-4.15;78.85;101512.78;5054857;28;20083;-56
2022/01/24 03:26:26;;;;;;;26.00;15.88;;;;;;;-4.15;77.39;101510.25;5044344;28;20081;-56
2022/01/24 03:28:52;;;;;;;29.20;18.13;;;;;;;-4.14;77.49;101504.41;5043963;28;20100;-56
2022/01/24 03:31:18;;;;;;;23.48;15.35;;;;;;;-4.16;78.35;101514.44;5045396;28;20087;-56
2022/01/24 03:33:44;;;;;;;26.20;15.45;;;;;;;-4.21;77.65;101515.75;5050323;28;20319;-56
2022/01/24 03:36:09;;;;;;;24.95;15.60;;;;;;;-4.24;76.98;101515.56;5050062;28;20065;-57
2022/01/24 03:38:35;;;;;;;26.85;16.52;;;;;;;-4.09;77.41;101510.69;5044455;28;20033;-56
2022/01/24 03:41:00;;;;;;;25.77;16.10;;;;;;;-4.20;76.65;101504.03;5054539;28;20048;-57
2022/01/24 03:43:26;;;;;;;27.50;16.85;;;;;;;-4.21;76.79;101499.72;5052254;28;20041;-57
2022/01/24 03:48:43;;;;;;;29.80;17.40;;;;;;;-3.96;77.22;101501.34;5041473;28;20030;-56
2022/01/24 03:51:10;;;;;;;29.88;17.83;;;;;;;-4.24;77.20;101482.69;5045359;28;20080;-58
2022/01/24 03:53:36;;;;;;;30.60;16.80;;;;;;;-4.13;77.47;101490.09;5044975;28;20191;-57
2022/01/24 03:56:03;;;;;;;24.50;16.83;;;;;;;-4.19;77.45;101486.41;5041808;28;20096;-56
2022/01/24 03:58:28;;;;;;;25.85;15.88;;;;;;;-4.32;76.63;101495.59;5043159;28;20357;-57
2022/01/24 04:00:55;;;;;;;26.52;16.70;;;;;;;-4.36;77.62;101497.91;5047679;28;20128;-56
2022/01/24 04:03:21;;;;;;;25.10;16.20;;;;;;;-4.31;77.43;101494.81;5043794;28;20051;-56
2022/01/24 04:05:47;;;;;;;27.05;15.65;;;;;;;-4.16;77.65;101485.75;5057976;28;20037;-57
2022/01/24 04:08:12;;;;;;;26.35;16.70;;;;;;;-4.45;77.61;101487.16;5046714;28;20109;-56
2022/01/24 04:10:44;;;;;;;25.15;15.07;;;;;;;-4.57;77.58;101476.22;5053509;28;20036;-56
2022/01/24 04:16:12;;;;;;;28.38;16.33;;;;;;;-4.59;77.91;101506.44;5044381;28;20342;-56
2022/01/24 04:23:53;;;;;;;30.63;17.13;;;;;;;-4.19;77.79;101490.56;5050580;28;20037;-56
2022/01/24 04:26:19;;;;;;;33.25;17.15;;;;;;;-4.23;78.05;101483.53;5039548;28;20028;-55
2022/01/24 04:28:44;;;;;;;30.15;17.05;;;;;;;-4.26;78.29;101486.78;5046549;28;20029;-56
2022/01/24 04:31:10;;;;;;;30.52;17.70;;;;;;;-4.14;77.92;101481.66;5046957;28;20242;-57
2022/01/24 04:33:36;;;;;;;32.92;18.40;;;;;;;-4.07;78.09;101483.81;5042242;28;20025;-55
2022/01/24 04:36:01;;;;;;;32.13;18.05;;;;;;;-4.29;77.44;101480.63;5060741;28;20032;-56
2022/01/24 04:38:27;;;;;;;36.28;20.80;;;;;;;-4.06;77.97;101490.63;5043010;28;20025;-55
2022/01/24 04:40:58;;;;;;;32.20;17.50;;;;;;;-4.27;77.58;101486.69;5057641;28;20032;-56
2022/01/24 04:56:34;;;;;;;32.88;17.80;;;;;;;-4.24;77.46;101489.41;5043829;28;20598;-55
2022/01/24 04:59:00;;;;;;;34.10;18.08;;;;;;;-4.25;77.31;101493.56;5050819;28;20036;-56
2022/01/24 05:01:26;;;;;;;30.73;18.70;;;;;;;-4.10;77.28;101503.84;5055015;28;20048;-55
2022/01/24 05:03:52;;;;;;;33.85;18.65;;;;;;;-4.03;78.63;101505.16;5045813;28;20368;-55
2022/01/24 05:06:18;;;;;;;31.58;18.98;;;;;;;-3.89;77.38;101504.41;5050232;28;20040;-54
2022/01/24 05:08:45;;;;;;;35.83;19.77;;;;;;;-4.16;77.15;101508.50;5045399;28;20057;-55
2022/01/24 05:11:14;;;;;;;32.95;20.52;;;;;;;-4.23;77.72;101516.44;5041402;28;20045;-55
2022/01/24 05:24:33;;;;;;;33.42;18.58;;;;;;;-3.73;77.14;101530.75;5054281;28;20253;-56
2022/01/24 05:26:59;;;;;;;33.38;19.95;;;;;;;-3.95;76.23;101516.63;5041712;28;20029;-55
2022/01/24 05:29:25;;;;;;;32.45;18.92;;;;;;;-3.89;76.97;101522.13;5056302;28;20029;-55
2022/01/24 05:31:50;;;;;;;32.45;18.77;;;;;;;-4.05;76.78;101511.75;5056762;28;20044;-55
2022/01/24 05:34:17;;;;;;;31.67;18.23;;;;;;;-3.92;76.40;101533.69;5049468;28;20025;-55
2022/01/24 05:36:42;;;;;;;33.53;19.42;;;;;;;-4.16;77.48;101536.34;5043004;28;20290;-55
2022/01/24 05:39:08;;;;;;;33.75;19.70;;;;;;;-4.06;78.14;101538.72;5047391;28;20037;-55
2022/01/24 05:41:36;;;;;;;32.22;18.92;;;;;;;-4.04;76.89;101536.28;5054297;28;20037;-55
2022/01/24 05:44:02;;;;;;;32.90;18.88;;;;;;;-3.96;77.09;101532.63;5047050;28;20303;-55
2022/01/24 05:46:27;;;;;;;32.67;19.65;;;;;;;-4.05;77.75;101535.38;5058514;28;20032;-56
2022/01/24 05:48:54;;;;;;;33.30;19.55;;;;;;;-4.21;77.64;101538.53;5057539;28;20049;-55
2022/01/24 05:51:21;;;;;;;31.02;18.25;;;;;;;-4.49;77.53;101528.16;5043762;28;20029;-56
2022/01/24 05:53:47;;;;;;;34.03;19.02;;;;;;;-4.28;78.39;101535.50;5043040;28;20029;-55
2022/01/24 05:56:12;;;;;;;34.80;19.92;;;;;;;-4.32;78.40;101539.44;5045879;28;20040;-56
2022/01/24 05:58:38;;;;;;;37.58;20.00;;;;;;;-4.32;78.94;101533.53;5041569;28;20029;-55
2022/01/24 06:01:04;;;;;;;34.67;18.80;;;;;;;-4.61;78.58;101532.38;5041088;28;20034;-55
2022/01/24 06:03:30;;;;;;;32.20;18.73;;;;;;;-4.74;79.62;101530.66;5046535;28;20025;-55
2022/01/24 06:05:55;;;;;;;31.15;18.77;;;;;;;-4.54;79.86;101530.38;5036300;28;20337;-55
2022/01/24 06:08:21;;;;;;;32.28;18.98;;;;;;;-4.59;78.87;101526.69;5050389;28;20025;-58
2022/01/24 06:10:47;;;;;;;28.80;18.70;;;;;;;-4.53;78.09;101524.56;5044700;28;20037;-55
2022/01/24 06:13:14;;;;;;;29.05;19.17;;;;;;;-4.49;78.67;101534.88;5051894;28;20479;-55
2022/01/24 06:15:41;;;;;;;31.00;18.63;;;;;;;-4.52;78.79;101535.53;5042067;28;20037;-55
2022/01/24 06:18:06;;;;;;;31.10;18.45;;;;;;;-4.49;77.99;101538.28;5025213;28;20017;-55
2022/01/24 06:20:32;;;;;;;30.25;18.02;;;;;;;-4.36;78.09;101538.38;5041875;28;20091;-55
2022/01/24 06:22:57;;;;;;;29.00;17.90;;;;;;;-4.20;77.85;101529.31;5045123;28;20025;-55
2022/01/24 06:25:25;;;;;;;32.10;18.65;;;;;;;-4.03;77.89;101533.00;5045622;28;20091;-55
2022/01/24 06:27:51;;;;;;;32.35;18.10;;;;;;;-4.35;76.53;101535.06;5045943;28;20029;-55
2022/01/24 06:30:17;;;;;;;32.35;18.50;;;;;;;-4.27;77.52;101538.13;5044046;28;20038;-55
2022/01/24 06:32:43;;;;;;;32.45;19.15;;;;;;;-4.22;77.58;101539.31;5045384;28;20130;-55
2022/01/24 06:35:10;;;;;;;32.35;19.23;;;;;;;-4.37;77.67;101539.13;5045076;28;20040;-54
2022/01/24 06:37:37;;;;;;;32.13;19.00;;;;;;;-4.31;78.76;101537.81;5044168;28;20066;-55
2022/01/24 06:40:04;;;;;;;31.15;18.10;;;;;;;-4.26;77.02;101537.34;5044719;28;20029;-54
2022/01/24 06:42:30;;;;;;;35.40;19.67;;;;;;;-4.30;76.76;101514.25;5042900;28;20045;-55
2022/01/24 06:44:56;;;;;;;34.75;20.33;;;;;;;-4.44;77.46;101526.84;5043823;28;20226;-55
2022/01/24 06:47:23;;;;;;;29.02;18.35;;;;;;;-4.19;77.31;101531.94;5044268;28;20037;-55
2022/01/24 06:49:48;;;;;;;34.38;19.50;;;;;;;-4.30;76.10;101531.97;5045567;28;20342;-55
2022/01/24 06:52:14;;;;;;;34.47;20.20;;;;;;;-4.31;77.57;101536.16;5044219;28;20029;-55
2022/01/24 06:54:41;;;;;;;34.78;20.25;;;;;;;-4.32;77.67;101534.38;5043626;28;20322;-54
2022/01/24 06:57:08;;;;;;;37.72;21.52;;;;;;;-4.30;77.57;101537.00;5043667;28;20094;-55
2022/01/24 06:59:35;;;;;;;40.03;22.67;;;;;;;-4.34;77.36;101525.81;5044603;28;20040;-56
2022/01/24 07:02:01;;;;;;;32.05;19.65;;;;;;;-4.21;77.36;101530.06;5043885;28;20100;-55
2022/01/24 07:04:26;;;;;;;36.38;19.42;;;;;;;-4.11;78.04;101529.91;5044578;28;20360;-55
2022/01/24 07:06:52;;;;;;;32.65;18.92;;;;;;;-4.01;76.60;101532.28;5045412;28;20068;-56
2022/01/24 07:09:18;;;;;;;34.08;19.13;;;;;;;-3.86;76.52;101534.13;5045406;28;20209;-55
2022/01/24 07:11:43;;;;;;;34.83;18.60;;;;;;;-3.82;76.39;101528.47;5044814;28;20041;-55
2022/01/24 07:14:12;;;;;;;31.08;18.95;;;;;;;-3.72;76.41;101530.84;5044622;28;20022;-55
2022/01/24 07:19:24;;;;;;;33.60;19.70;;;;;;;-3.72;75.94;101532.47;5042639;28;20029;-55
2022/01/24 07:21:50;;;;;;;33.05;19.45;;;;;;;-4.05;76.16;101474.66;5044880;28;20367;-56
2022/01/24 07:24:16;;;;;;;34.55;20.35;;;;;;;-3.92;75.77;101543.81;5044841;28;20060;-55
2022/01/24 07:26:41;;;;;;;36.15;20.15;;;;;;;-3.88;76.15;101523.00;5043931;28;20037;-55
2022/01/24 07:29:07;;;;;;;35.65;20.48;;;;;;;-3.83;77.00;101532.66;5043695;28;20037;-55
2022/01/24 07:31:32;;;;;;;34.47;21.08;;;;;;;-3.78;76.23;101525.34;5045773;28;20032;-54
2022/01/24 07:33:58;;;;;;;37.13;20.58;;;;;;;-3.77;75.94;101542.31;5042378;28;20096;-55
2022/01/24 07:36:25;;;;;;;31.60;19.98;;;;;;;-3.73;76.16;101539.22;5055670;28;20397;-55
2022/01/24 07:38:51;;;;;;;35.55;19.67;;;;;;;-3.72;76.13;101540.06;5056478;28;20036;-55
2022/01/24 07:41:23;;;;;;;36.03;21.25;;;;;;;-3.66;76.32;101521.13;5056005;28;20032;-55
2022/01/24 07:43:48;;;;;;;38.42;22.23;;;;;;;-3.98;75.52;101521.50;5044645;28;20318;-54
2022/01/24 07:46:14;;;;;;;40.35;22.35;;;;;;;-3.89;76.17;101513.66;5050737;28;20032;-55
2022/01/24 07:48:40;;;;;;;37.42;21.67;;;;;;;-3.70;77.23;101515.75;5053100;28;20025;-54
2022/01/24 07:51:05;;;;;;;35.08;21.80;;;;;;;-3.72;76.50;101515.66;5045843;28;20022;-55
2022/01/24 07:53:31;;;;;;;49.97;28.27;;;;;;;-3.87;77.07;101522.22;5045486;28;20242;-55
2022/01/24 07:55:57;;;;;;;39.10;22.20;;;;;;;-3.78;75.81;101525.34;5048008;28;20037;-56
2022/01/24 07:58:23;;;;;;;34.65;20.60;;;;;;;-3.77;75.79;101509.41;5058259;28;20040;-55
2022/01/24 08:00:49;;;;;;;38.63;22.10;;;;;;;-3.58;75.75;101523.28;5048033;28;20234;-55
2022/01/24 08:03:15;;;;;;;35.20;20.42;;;;;;;-3.42;75.62;101515.03;5056561;28;20037;-55
2022/01/24 08:05:42;;;;;;;40.85;21.17;;;;;;;-3.42;75.02;101526.03;5045382;28;20042;-56
2022/01/24 08:08:07;;;;;;;38.38;21.98;;;;;;;-3.43;75.19;101514.16;5043847;28;20041;-56
2022/01/24 08:10:34;;;;;;;37.03;21.45;;;;;;;-3.23;75.55;101517.97;5044123;28;20334;-55
2022/01/24 08:12:59;;;;;;;40.05;22.35;;;;;;;-3.27;75.44;101515.16;5042752;28;20096;-55
2022/01/24 08:15:26;;;;;;;33.78;20.15;;;;;;;-3.28;75.40;101510.84;5045610;28;20630;-58
2022/01/24 08:17:51;;;;;;;34.45;21.65;;;;;;;-3.17;75.57;101515.81;5058059;28;20092;-56
2022/01/24 08:20:18;;;;;;;37.67;20.85;;;;;;;-3.17;75.11;101503.16;5045686;28;20029;-55
2022/01/24 08:22:44;;;;;;;33.45;20.05;;;;;;;-3.04;74.58;101520.00;5050030;28;20029;-56
2022/01/24 08:25:11;;;;;;;34.15;19.75;;;;;;;-3.28;75.22;101463.59;5050552;28;20061;-57
2022/01/24 08:27:37;;;;;;;34.35;20.85;;;;;;;-2.93;74.38;101515.63;5056387;28;20052;-55
2022/01/24 08:30:15;;;;;;;38.33;22.40;;;;;;;-2.98;73.72;101514.44;5057948;28;20218;-56
2022/01/24 08:32:41;;;;;;;42.20;23.58;;;;;;;-3.07;73.48;101504.63;5044215;28;20025;-55
2022/01/24 08:35:08;;;;;;;43.63;23.50;;;;;;;-3.12;74.05;101511.06;5050206;28;20297;-55
2022/01/24 08:37:34;;;;;;;41.90;24.00;;;;;;;-3.08;73.79;101514.66;5054372;28;20037;-55
2022/01/24 08:40:00;;;;;;;42.35;23.92;;;;;;;-3.09;74.74;101508.72;5042421;28;20229;-56
2022/01/24 08:47:27;;;;;;;39.97;24.42;;;;;;;-3.04;74.72;101522.53;5056277;28;20029;-55
2022/01/24 08:49:53;;;;;;;37.50;22.55;;;;;;;-3.10;74.76;101516.22;5049336;28;20337;-56
2022/01/24 08:52:20;;;;;;;38.20;23.00;;;;;;;-3.24;74.32;101518.75;5052086;28;20322;-56
2022/01/24 08:54:46;;;;;;;35.75;21.23;;;;;;;-3.08;74.47;101512.97;5041061;28;20326;-55
2022/01/24 08:57:13;;;;;;;42.05;21.83;;;;;;;-2.96;74.94;101503.63;5043105;28;20031;-55
2022/01/24 08:59:39;;;;;;;33.92;21.02;;;;;;;-2.91;74.22;101506.44;5052525;28;20032;-56
2022/01/24 09:02:05;;;;;;;32.25;21.13;;;;;;;-2.91;73.57;101493.78;5051122;28;20314;-55
2022/01/24 09:04:31;;;;;;;33.28;20.50;;;;;;;-2.87;72.78;101489.78;5045811;28;20083;-56
2022/01/24 09:07:04;;;;;;;30.58;19.42;;;;;;;-2.70;71.07;101506.91;5046910;28;20092;-55
2022/01/24 09:09:31;;;;;;;35.78;20.80;;;;;;;-2.69;71.54;101503.59;5046443;28;20228;-56
2022/01/24 09:11:57;;;;;;;32.13;20.00;;;;;;;-2.64;72.16;101497.16;5044116;28;20049;-55
2022/01/24 09:14:23;;;;;;;35.08;21.65;;;;;;;-2.60;73.18;101491.47;5045214;28;20222;-55
2022/01/24 09:16:48;;;;;;;33.60;21.20;;;;;;;-2.60;73.12;101488.94;5059541;28;20037;-55
2022/01/24 09:19:14;;;;;;;36.65;22.20;;;;;;;-2.70;72.25;101475.63;5042712;28;20029;-55
2022/01/24 09:21:40;;;;;;;34.10;21.00;;;;;;;-2.60;71.90;101494.00;5042694;28;20086;-55
2022/01/24 09:24:06;;;;;;;30.77;20.27;;;;;;;-2.60;71.72;101486.41;5042248;28;20037;-55
2022/01/24 09:26:32;;;;;;;34.15;20.27;;;;;;;-2.62;71.82;101490.53;5041422;28;20393;-55
2022/01/24 09:28:58;;;;;;;37.30;22.95;;;;;;;-2.85;70.61;101488.22;5042040;28;20048;-55
2022/01/24 09:31:23;;;;;;;40.15;22.13;;;;;;;-3.01;72.07;101471.19;5043037;28;20025;-55
2022/01/24 09:33:50;;;;;;;37.97;22.85;;;;;;;-3.04;72.50;101486.19;5040064;28;20025;-55
2022/01/24 09:36:16;;;;;;;37.72;22.88;;;;;;;-3.08;72.81;101490.19;5043368;28;20035;-56
2022/01/24 09:38:42;;;;;;;39.38;22.45;;;;;;;-3.34;72.66;101478.41;5043129;28;20033;-55
2022/01/24 09:41:09;;;;;;;84.85;41.65;;;;;;;-3.13;74.07;101496.63;5041298;28;20037;-55
2022/01/24 09:43:35;;;;;;;43.15;25.90;;;;;;;-3.01;72.86;101471.19;5042271;28;20333;-55
2022/01/24 09:46:02;;;;;;;40.42;23.00;;;;;;;-3.07;73.17;101480.94;5042830;28;20041;-55
2022/01/24 09:48:29;;;;;;;35.67;22.50;;;;;;;-3.28;73.88;101471.19;5041911;28;20033;-54
2022/01/24 09:50:55;;;;;;;40.25;24.65;;;;;;;-3.54;74.41;101469.53;5041669;28;20088;-55
2022/01/24 09:53:24;;;;;;;38.33;22.98;;;;;;;-3.91;74.82;101412.31;5041482;28;20048;-56
2022/01/24 09:55:50;;;;;;;40.20;25.08;;;;;;;-3.49;75.39;101461.44;5044372;28;20045;-55
2022/01/24 09:58:16;;;;;;;46.50;25.35;;;;;;;-3.50;73.81;101462.22;5045466;28;20022;-55
2022/01/24 10:00:43;;;;;;;45.30;24.58;;;;;;;-3.60;74.61;101456.50;5045419;28;20032;-54
2022/01/24 10:03:12;;;;;;;41.25;24.00;;;;;;;-3.32;74.86;101449.88;5044778;28;20250;-56
2022/01/24 10:05:39;;;;;;;44.70;26.95;;;;;;;-3.33;74.11;101449.78;5046789;28;20029;-56
2022/01/24 10:08:17;;;;;;;42.88;26.08;;;;;;;-3.13;74.28;101471.28;5052174;28;20072;-55
2022/01/24 10:10:51;;;;;;;39.17;24.63;;;;;;;-3.16;73.83;101450.84;5045764;28;20275;-55
2022/01/24 10:19:02;;;;;;;51.00;29.65;;;;;;;-3.06;73.80;101444.69;5045319;28;20040;-56
2022/01/24 10:21:28;;;;;;;40.47;24.73;;;;;;;-3.04;74.05;101438.91;5063279;28;20032;-55
2022/01/24 10:23:55;;;;;;;42.97;25.52;;;;;;;-3.25;73.28;101437.56;5056834;28;20251;-55
2022/01/24 10:26:21;;;;;;;44.97;25.60;;;;;;;-3.31;74.35;101433.91;5047612;28;20029;-55
2022/01/24 10:28:46;;;;;;;40.47;24.38;;;;;;;-3.34;74.67;101428.63;5047280;28;20099;-56
2022/01/24 10:31:17;;;;;;;38.92;23.80;;;;;;;-3.33;74.20;101429.50;5051176;28;20124;-56
2022/01/24 10:34:08;;;;;;;45.97;27.25;;;;;;;-3.59;74.98;101431.25;5051878;28;20032;-55
2022/01/24 10:36:35;;;;;;;44.40;27.00;;;;;;;-3.86;75.09;101364.56;5054154;28;20249;-56
2022/01/24 10:39:54;;;;;;;44.08;26.00;;;;;;;-3.59;75.56;101427.84;5056520;28;20034;-54
2022/01/24 10:42:52;;;;;;;46.97;27.02;;;;;;;-3.82;74.87;101425.59;5046123;28;20057;-55
2022/01/24 10:45:17;;;;;;;46.55;27.30;;;;;;;-3.54;74.79;101418.88;5052069;28;20041;-56
2022/01/24 10:47:47;;;;;;;47.15;27.17;;;;;;;-3.30;76.19;101420.44;5045002;28;20051;-55
2022/01/24 10:50:39;;;;;;;46.45;26.73;;;;;;;-3.31;75.15;101406.03;5046270;28;21041;-56
2022/01/24 10:53:13;;;;;;;45.65;27.83;;;;;;;-3.40;74.96;101423.16;5042363;28;20229;-56
2022/01/24 10:55:43;;;;;;;41.35;25.90;;;;;;;-3.57;74.87;101403.50;5042726;28;20033;-56
2022/01/24 10:58:16;;;;;;;49.00;27.35;;;;;;;-3.54;74.64;101403.69;5043634;28;20029;-55
2022/01/24 11:00:42;;;;;;;43.75;24.77;;;;;;;-3.93;75.38;101410.47;5042039;28;20310;-55
2022/01/24 11:03:16;;;;;;;49.78;26.63;;;;;;;-4.08;76.71;101412.88;5044528;28;20044;-55
2022/01/24 11:05:43;;;;;;;47.55;26.60;;;;;;;-4.06;76.17;101409.69;5041510;28;20104;-56
2022/01/24 11:08:15;;;;;;;44.58;23.17;;;;;;;-4.73;77.29;101341.22;5044355;28;20297;-55
2022/01/24 11:10:48;;;;;;;44.13;26.38;;;;;;;-4.44;76.74;101349.84;5044970;28;20090;-55
2022/01/24 11:13:18;;;;;;;43.28;26.38;;;;;;;-4.07;76.52;101402.88;5044666;28;20041;-56
2022/01/24 11:15:54;;;;;;;48.53;27.05;;;;;;;-3.72;77.58;101408.44;5043282;28;20029;-55
2022/01/24 11:18:21;;;;;;;48.88;27.42;;;;;;;-3.98;76.21;101405.13;5045441;28;20049;-55
2022/01/24 11:20:47;;;;;;;48.13;28.35;;;;;;;-4.00;77.25;101391.50;5045878;28;20087;-55
2022/01/24 11:23:13;;;;;;;54.50;29.70;;;;;;;-4.51;76.43;101335.94;5044973;28;20028;-56
2022/01/24 11:25:42;;;;;;;49.38;29.45;;;;;;;-3.71;77.84;101400.94;5041726;28;20079;-55
2022/01/24 11:28:08;;;;;;;53.00;28.83;;;;;;;-3.95;77.05;101400.25;5044288;28;20318;-56
2022/01/24 11:30:40;;;;;;;53.30;30.33;;;;;;;-4.43;76.62;101336.44;5044983;28;20037;-56
2022/01/24 11:33:10;;;;;;;;;;;;;;;-3.83;76.51;101397.66;5044497;28;20047;-55
2022/01/24 11:35:51;;;;;;;52.45;29.88;;;;;;;-3.66;76.68;101381.88;5043896;28;19928;-55
2022/01/24 11:38:30;;;;;;;50.75;29.80;;;;;;;-3.54;76.34;101384.31;5046225;28;20025;-55
2022/01/24 11:41:02;;;;;;;51.17;28.75;;;;;;;-3.33;77.55;101407.56;5043975;28;20033;-55
2022/01/24 11:43:39;;;;;;;52.38;30.17;;;;;;;-3.25;75.62;101381.84;5044094;28;20044;-55
2022/01/24 11:46:41;;;;;;;54.55;31.45;;;;;;;-3.17;76.45;101373.94;5043761;28;20172;-55
2022/01/24 11:49:10;;;;;;;56.70;33.03;;;;;;;-3.42;74.61;101361.44;5042251;28;20075;-55
2022/01/24 11:51:37;;;;;;;58.85;33.22;;;;;;;-3.70;74.97;101372.34;5028351;28;20037;-55
2022/01/24 11:54:03;;;;;;;58.08;33.25;;;;;;;-3.50;75.66;101363.47;5043244;28;20131;-55
2022/01/24 11:56:32;;;;;;;60.88;33.30;;;;;;;-3.78;74.80;101301.75;5044851;28;20025;-55
2022/01/24 11:59:18;;;;;;;62.90;32.08;;;;;;;-3.82;74.44;101318.41;5031262;28;20029;-55
2022/01/24 12:01:47;;;;;;;63.63;35.63;;;;;;;-3.50;75.08;101366.00;5027174;28;20395;-55
2022/01/24 12:04:13;;;;;;;59.25;32.75;;;;;;;-3.40;75.85;101357.31;5043794;28;20341;-54
2022/01/24 12:07:16;;;;;;;60.13;35.13;;;;;;;-3.35;74.95;101357.59;5043154;28;20029;-55
2022/01/24 12:09:42;;;;;;;61.42;34.22;;;;;;;-3.45;74.32;101343.50;5041915;28;20089;-56
2022/01/24 12:12:47;;;;;;;65.00;34.50;;;;;;;-3.37;75.57;101336.38;5044759;28;20044;-56
2022/01/24 12:15:38;;;;;;;62.85;34.47;;;;;;;-3.41;75.53;101334.44;5030284;28;20037;-60
2022/01/24 12:18:06;;;;;;;54.97;31.27;;;;;;;-3.66;75.53;101338.84;5044560;28;20037;-56
2022/01/24 12:20:31;;;;;;;63.25;34.67;;;;;;;-3.61;75.39;101334.06;5041744;28;20390;-56
2022/01/24 12:22:58;;;;;;;59.90;33.50;;;;;;;-3.57;75.43;101332.63;5059985;28;20039;-56
2022/01/24 12:25:57;;;;;;;59.80;31.85;;;;;;;-3.37;73.80;101339.78;5044119;28;20033;-55
2022/01/24 12:28:27;;;;;;;53.65;31.52;;;;;;;-3.28;74.96;101336.06;5059226;28;20029;-56
2022/01/24 12:31:08;;;;;;;62.75;35.03;;;;;;;-3.54;74.24;101330.28;5042944;28;20322;-57
2022/01/24 12:33:36;;;;;;;56.70;34.42;;;;;;;-3.97;75.35;101249.13;5041703;28;20071;-60
2022/01/24 12:36:07;;;;;;;55.15;32.88;;;;;;;-4.00;74.57;101267.53;5048088;28;20040;-57
2022/01/24 12:38:59;;;;;;;61.95;34.70;;;;;;;-3.42;73.18;101346.25;5044181;28;20044;-55
2022/01/24 12:41:31;;;;;;;61.13;33.17;;;;;;;-3.81;74.02;101269.53;5040287;28;20055;-57
2022/01/24 12:46:29;;;;;;;58.75;32.05;;;;;;;-3.21;74.86;101341.59;5053845;28;19913;-57
2022/01/24 12:48:57;;;;;;;56.10;32.65;;;;;;;-3.09;74.77;101331.34;5057818;28;20043;-56
2022/01/24 12:51:24;;;;;;;63.30;35.63;;;;;;;-3.03;74.96;101334.25;5045438;28;20025;-55
2022/01/24 12:53:51;;;;;;;55.13;32.13;;;;;;;-2.95;74.65;101338.13;5037916;28;20029;-57
2022/01/24 12:56:23;;;;;;;56.75;33.58;;;;;;;-2.95;74.70;101330.53;5054763;28;20104;-57
2022/01/24 12:58:49;;;;;;;59.28;35.50;;;;;;;-3.19;72.85;101286.84;5044062;28;20856;-56
2022/01/24 13:01:27;;;;;;;56.28;32.42;;;;;;;-2.86;73.66;101324.25;5059278;28;20083;-56
2022/01/24 13:04:02;;;;;;;43.03;24.73;;;;;;;-3.33;73.41;101254.75;5041066;28;20071;-55
2022/01/24 13:06:36;;;;;;;40.40;23.65;;;;;;;-3.27;73.29;101264.38;5031749;28;20100;-57
2022/01/24 13:09:16;;;;;;;39.17;22.67;;;;;;;-3.17;74.36;101292.00;5042175;28;20034;-56
2022/01/24 13:11:52;;;;;;;50.03;28.33;;;;;;;-2.91;74.88;101333.22;5059371;28;20290;-56
2022/01/24 13:14:24;;;;;;;42.28;23.02;;;;;;;-2.88;74.58;101315.66;5058148;28;20037;-55
2022/01/24 13:25:10;;;;;;;39.70;22.70;;;;;;;-2.83;74.10;101324.44;5042228;28;20037;-56